Time;durP1;ratioP1;P1;durP2;ratioP2;P2;SDS_P1;SDS_P2;PMS_P1;PMS_P2;Temp;Humidity;BMP_temperature;BMP_pressure;BME280_temperature;BME280_humidity;BME280_pressure;Samples;Min_cycle;Max_cycle;Signal;HPM_P1;HPM_P2
2023/05/12 00:00:47;;;;;;;2.60;2.40;;;10.80;99.90;;;;;;5070420;28;20232;-94
2023/05/12 00:03:14;;;;;;;3.60;3.30;;;10.80;99.90;;;;;;5070752;28;20205;-94
2023/05/12 00:05:41;;;;;;;3.65;2.50;;;10.80;99.90;;;;;;5065884;28;20244;-94
2023/05/12 00:08:09;;;;;;;5.40;3.00;;;10.80;99.90;;;;;;5064306;28;20302;-94
2023/05/12 00:10:36;;;;;;;3.30;3.00;;;10.80;99.90;;;;;;5063246;28;20208;-94
2023/05/12 00:13:03;;;;;;;3.63;2.97;;;10.80;99.90;;;;;;5063923;28;20203;-94
2023/05/12 00:15:30;;;;;;;3.38;3.08;;;10.80;99.90;;;;;;5072686;28;20205;-94
2023/05/12 00:17:59;;;;;;;2.80;2.60;;;10.80;99.90;;;;;;5079093;28;20219;-92
2023/05/12 00:20:26;;;;;;;3.03;2.67;;;10.80;99.90;;;;;;5071870;28;20233;-94
2023/05/12 00:22:53;;;;;;;3.42;2.50;;;10.80;99.90;;;;;;5079566;28;20261;-93
2023/05/12 00:25:21;;;;;;;3.55;3.25;;;10.70;99.90;;;;;;5071582;28;20189;-94
2023/05/12 00:27:48;;;;;;;2.90;2.70;;;10.70;99.90;;;;;;5077114;28;20239;-93
2023/05/12 00:30:15;;;;;;;4.60;3.22;;;10.70;99.90;;;;;;5079250;28;20220;-95
2023/05/12 00:32:42;;;;;;;4.90;3.75;;;10.70;99.90;;;;;;5079524;28;20208;-92
2023/05/12 00:35:11;;;;;;;4.15;3.75;;;10.70;99.90;;;;;;5079027;28;20224;-94
2023/05/12 00:37:37;;;;;;;3.88;3.47;;;10.70;99.90;;;;;;5078559;28;20205;-94
2023/05/12 00:40:06;;;;;;;4.07;3.65;;;10.60;99.90;;;;;;5078625;28;20224;-94
2023/05/12 00:42:36;;;;;;;4.38;3.97;;;10.60;99.90;;;;;;5078088;28;20205;-94
2023/05/12 00:45:04;;;;;;;5.70;3.95;;;10.60;99.90;;;;;;5075404;28;20264;-96
2023/05/12 00:47:31;;;;;;;3.50;3.17;;;10.70;99.90;;;;;;5074830;23;20681;-68
2023/05/12 00:49:58;;;;;;;3.70;3.40;;;10.70;99.90;;;;;;5070912;28;20188;-68
2023/05/12 00:52:27;;;;;;;3.65;3.15;;;10.70;99.90;;;;;;5072305;28;20224;-68
2023/05/12 00:54:54;;;;;;;3.78;3.38;;;10.60;99.90;;;;;;5070248;28;20204;-68
2023/05/12 00:57:22;;;;;;;3.17;2.83;;;10.60;99.90;;;;;;5055566;28;20769;-68
2023/05/12 00:59:49;;;;;;;3.15;2.85;;;10.60;99.90;;;;;;5051267;28;20221;-68
2023/05/12 01:02:16;;;;;;;3.35;2.90;;;10.60;99.90;;;;;;5051761;28;20232;-68
2023/05/12 01:04:42;;;;;;;3.03;2.72;;;10.60;99.90;;;;;;5050733;28;20205;-68
2023/05/12 01:07:15;;;;;;;3.95;3.00;;;10.60;99.90;;;;;;5051150;28;20217;-68
2023/05/12 01:09:43;;;;;;;5.57;3.08;;;10.60;99.90;;;;;;5051012;28;20193;-68
2023/05/12 01:12:10;;;;;;;3.70;3.30;;;10.60;99.90;;;;;;5051155;28;20399;-68
2023/05/12 01:14:36;;;;;;;3.63;3.20;;;10.50;99.90;;;;;;5050849;28;20208;-68
2023/05/12 01:17:08;;;;;;;3.50;3.20;;;10.50;99.90;;;;;;5050903;28;20220;-68
2023/05/12 01:19:41;;;;;;;3.50;3.20;;;10.50;99.90;;;;;;5050869;28;20220;-68
2023/05/12 01:22:08;;;;;;;4.70;3.60;;;10.50;99.90;;;;;;5051003;28;20193;-68
2023/05/12 01:24:41;;;;;;;3.65;3.33;;;10.60;99.90;;;;;;5050758;28;20216;-68
2023/05/12 01:27:10;;;;;;;4.18;3.50;;;10.60;99.90;;;;;;5050956;28;20240;-68
2023/05/12 01:29:38;;;;;;;3.92;3.40;;;10.60;99.90;;;;;;5050777;28;20259;-68
2023/05/12 01:32:05;;;;;;;3.15;2.95;;;10.60;99.90;;;;;;5050607;28;20209;-68
2023/05/12 01:34:34;;;;;;;4.03;3.50;;;10.60;99.90;;;;;;5050584;28;20205;-68
2023/05/12 01:37:01;;;;;;;3.38;3.08;;;10.60;99.90;;;;;;5062550;28;20223;-68
2023/05/12 01:39:28;;;;;;;4.00;3.60;;;10.60;99.90;;;;;;5070569;28;20698;-68
2023/05/12 01:41:54;;;;;;;5.07;4.57;;;10.60;99.90;;;;;;5070210;28;20210;-67
2023/05/12 01:44:22;;;;;;;5.30;4.50;;;10.60;99.90;;;;;;5070986;28;20196;-68
2023/05/12 01:46:49;;;;;;;5.45;4.63;;;10.70;99.90;;;;;;5070123;28;20240;-68
2023/05/12 01:49:18;;;;;;;6.15;4.82;;;10.70;99.90;;;;;;5071287;28;20227;-68
2023/05/12 01:51:45;;;;;;;5.72;4.60;;;10.70;99.90;;;;;;5060911;28;20204;-68
2023/05/12 01:54:12;;;;;;;5.00;4.50;;;10.70;99.90;;;;;;5050060;28;20197;-68
2023/05/12 01:56:38;;;;;;;5.35;4.68;;;10.70;99.90;;;;;;5050295;28;20220;-68
2023/05/12 01:59:05;;;;;;;5.30;4.80;;;10.70;99.90;;;;;;5062692;28;20666;-68
2023/05/12 02:01:33;;;;;;;4.90;4.40;;;10.70;99.90;;;;;;5070569;28;20200;-68
2023/05/12 02:04:02;;;;;;;5.07;4.57;;;10.70;99.90;;;;;;5042598;28;20624;-68
2023/05/12 02:06:29;;;;;;;6.63;4.60;;;10.70;99.90;;;;;;5051248;28;20225;-68
2023/05/12 02:08:56;;;;;;;6.57;4.95;;;10.70;99.90;;;;;;5059361;28;20200;-68
2023/05/12 02:11:23;;;;;;;5.25;4.68;;;10.70;99.90;;;;;;5059200;28;20272;-68
2023/05/12 02:13:49;;;;;;;6.25;5.63;;;10.70;99.90;;;;;;5052149;28;20200;-68
2023/05/12 02:16:16;;;;;;;6.63;5.13;;;10.70;99.90;;;;;;5056858;28;20224;-68
2023/05/12 02:18:44;;;;;;;5.40;4.90;;;10.70;99.90;;;;;;5050460;28;20208;-68
2023/05/12 02:21:11;;;;;;;8.25;5.95;;;10.70;99.90;;;;;;5055524;28;20296;-68
2023/05/12 02:23:38;;;;;;;8.40;5.60;;;10.70;99.90;;;;;;5061842;28;20209;-68
2023/05/12 02:26:05;;;;;;;6.05;4.95;;;10.70;99.90;;;;;;5058453;28;20217;-68
2023/05/12 02:28:32;;;;;;;7.20;5.65;;;10.70;99.90;;;;;;5050360;28;20201;-68
2023/05/12 02:30:59;;;;;;;8.05;5.45;;;10.70;99.90;;;;;;5049656;28;20568;-68
2023/05/12 02:33:26;;;;;;;6.65;5.47;;;10.70;99.90;;;;;;5049879;28;20205;-68
2023/05/12 02:35:54;;;;;;;6.63;5.10;;;10.70;99.90;;;;;;5049760;28;20312;-68
2023/05/12 02:38:21;;;;;;;7.38;5.15;;;10.70;99.90;;;;;;5050344;28;20197;-68
2023/05/12 02:40:47;;;;;;;8.55;6.22;;;10.70;99.90;;;;;;5049316;28;20308;-67
2023/05/12 02:43:14;;;;;;;5.80;5.22;;;10.70;99.90;;;;;;5052165;28;20200;-68
2023/05/12 02:45:41;;;;;;;5.97;4.97;;;10.70;99.90;;;;;;5053520;28;20201;-68
2023/05/12 02:48:08;;;;;;;6.20;5.45;;;10.70;99.90;;;;;;5053939;28;20209;-68
2023/05/12 02:50:34;;;;;;;7.10;5.88;;;10.70;99.90;;;;;;5053920;28;20196;-68
2023/05/12 02:53:02;;;;;;;6.18;5.57;;;10.70;99.90;;;;;;5053580;28;20259;-68
2023/05/12 02:55:29;;;;;;;7.25;6.40;;;10.70;99.90;;;;;;5053566;28;20209;-68
2023/05/12 02:57:56;;;;;;;6.63;5.32;;;10.60;99.90;;;;;;5056106;28;20201;-68
2023/05/12 03:00:23;;;;;;;8.00;5.50;;;10.60;99.90;;;;;;5073515;28;20213;-67
2023/05/12 03:02:49;;;;;;;7.70;5.97;;;10.60;99.90;;;;;;5073449;28;20655;-68
2023/05/12 03:05:16;;;;;;;6.68;5.50;;;10.70;99.90;;;;;;5073358;28;20200;-68
2023/05/12 03:07:43;;;;;;;6.28;5.32;;;10.60;99.90;;;;;;5073361;28;20220;-68
2023/05/12 03:10:11;;;;;;;8.48;6.50;;;10.60;99.90;;;;;;5073374;28;20204;-68
2023/05/12 03:12:38;;;;;;;11.85;8.35;;;10.60;99.90;;;;;;5073680;28;20277;-68
2023/05/12 03:15:05;;;;;;;10.45;9.45;;;10.60;99.90;;;;;;5072951;28;20209;-68
2023/05/12 03:17:32;;;;;;;9.80;7.68;;;10.70;99.90;;;;;;5073568;28;20221;-69
2023/05/12 03:19:59;;;;;;;9.48;7.88;;;10.60;99.90;;;;;;5072950;28;20220;-68
2023/05/12 03:22:25;;;;;;;8.40;7.47;;;10.60;99.90;;;;;;5073720;28;20208;-69
2023/05/12 03:24:52;;;;;;;7.25;6.53;;;10.60;99.90;;;;;;5072741;28;20204;-68
2023/05/12 03:27:20;;;;;;;7.85;6.63;;;10.60;99.90;;;;;;5073489;28;20216;-68
2023/05/12 03:29:47;;;;;;;7.20;6.20;;;10.60;99.90;;;;;;5072499;28;20196;-68
2023/05/12 03:32:14;;;;;;;9.80;6.45;;;10.60;99.90;;;;;;5073291;28;20223;-68
2023/05/12 03:34:40;;;;;;;8.07;6.38;;;10.60;99.90;;;;;;5049166;28;20202;-68
2023/05/12 03:37:08;;;;;;;8.43;6.63;;;10.70;99.90;;;;;;5052161;28;20315;-68
2023/05/12 03:39:34;;;;;;;8.15;6.07;;;10.60;99.90;;;;;;5044254;28;20204;-68
2023/05/12 03:42:01;;;;;;;7.20;5.50;;;10.60;99.90;;;;;;5045805;28;20209;-68
2023/05/12 03:44:29;;;;;;;7.05;5.82;;;10.60;99.90;;;;;;5044612;28;20208;-68
2023/05/12 03:46:56;;;;;;;8.77;5.95;;;10.60;99.90;;;;;;5042157;28;20289;-68
2023/05/12 03:49:23;;;;;;;10.05;6.80;;;10.70;99.90;;;;;;5045728;28;20202;-68
2023/05/12 03:51:49;;;;;;;12.05;6.95;;;10.70;99.90;;;;;;5045691;28;20247;-68
2023/05/12 03:54:16;;;;;;;8.95;6.55;;;10.70;99.90;;;;;;5043945;28;20208;-68
2023/05/12 03:56:43;;;;;;;8.25;7.15;;;10.70;99.90;;;;;;5045024;28;20221;-68
2023/05/12 03:59:11;;;;;;;7.70;6.90;;;10.70;99.90;;;;;;5045619;28;20818;-68
2023/05/12 04:01:39;;;;;;;9.13;7.90;;;10.70;99.90;;;;;;5046746;28;20212;-68
2023/05/12 04:04:05;;;;;;;10.55;7.10;;;10.70;99.90;;;;;;5041315;28;20205;-68
2023/05/12 04:11:28;;;;;;;7.03;5.82;;;10.70;99.90;;;;;;5049261;28;20209;-68
2023/05/12 04:13:55;;;;;;;7.87;6.10;;;10.70;99.90;;;;;;5049427;28;20463;-67
2023/05/12 04:16:22;;;;;;;9.05;7.25;;;10.70;99.90;;;;;;5044183;28;20824;-68
2023/05/12 04:18:50;;;;;;;8.68;7.00;;;10.70;99.90;;;;;;5031490;28;20584;-67
2023/05/12 04:21:17;;;;;;;7.95;6.90;;;10.80;99.90;;;;;;5031863;28;20222;-68
2023/05/12 04:23:43;;;;;;;12.32;7.78;;;10.70;99.90;;;;;;5031595;28;20707;-71
2023/05/12 04:26:10;;;;;;;8.63;6.95;;;10.80;99.90;;;;;;5031661;28;20700;-69
2023/05/12 04:28:37;;;;;;;7.90;6.53;;;10.80;99.90;;;;;;5031750;28;20624;-69
2023/05/12 04:31:04;;;;;;;8.90;6.32;;;10.80;99.90;;;;;;5029134;28;20206;-74
2023/05/12 04:33:31;;;;;;;10.35;7.00;;;10.80;99.90;;;;;;5028873;28;20244;-73
2023/05/12 04:35:59;;;;;;;7.93;6.57;;;10.80;99.90;;;;;;5028648;28;20222;-73
2023/05/12 04:38:26;;;;;;;7.70;6.63;;;10.90;99.90;;;;;;5029160;28;20208;-73
2023/05/12 04:40:58;;;;;;;8.52;7.30;;;10.90;99.90;;;;;;5028462;28;20227;-71
2023/05/12 04:43:25;;;;;;;9.35;6.60;;;10.80;99.90;;;;;;5028936;28;20230;-72
2023/05/12 04:45:54;;;;;;;8.48;6.90;;;10.90;99.90;;;;;;5030220;28;20229;-72
2023/05/12 04:48:20;;;;;;;8.80;5.97;;;10.90;99.90;;;;;;5068208;23;20217;-69
2023/05/12 04:50:47;;;;;;;6.97;6.07;;;10.90;99.90;;;;;;5050992;28;20205;-70
2023/05/12 04:53:16;;;;;;;7.40;5.85;;;10.90;99.90;;;;;;5051453;28;20674;-69
2023/05/12 04:55:44;;;;;;;7.57;6.82;;;10.90;99.90;;;;;;5051009;28;20236;-68
2023/05/12 04:58:12;;;;;;;8.05;6.40;;;10.90;99.90;;;;;;5043462;28;20198;-71
2023/05/12 05:00:38;;;;;;;7.72;5.40;;;11.00;99.90;;;;;;5051686;28;20221;-74
2023/05/12 05:03:05;;;;;;;7.30;6.60;;;11.00;99.90;;;;;;5051263;28;20212;-69
2023/05/12 05:05:32;;;;;;;8.68;6.45;;;11.00;99.90;;;;;;5050572;28;20259;-71
2023/05/12 05:07:59;;;;;;;6.45;5.72;;;11.10;99.90;;;;;;5051179;28;20201;-70
2023/05/12 05:10:27;;;;;;;6.55;5.32;;;11.10;99.90;;;;;;5050990;28;20406;-70
2023/05/12 05:12:53;;;;;;;6.25;5.50;;;11.10;99.90;;;;;;5052066;28;20212;-69
2023/05/12 05:15:20;;;;;;;7.20;6.45;;;11.10;99.90;;;;;;5070783;28;20196;-69
2023/05/12 05:17:48;;;;;;;6.90;5.85;;;11.20;99.90;;;;;;5071093;28;20707;-70
2023/05/12 05:20:14;;;;;;;6.68;5.53;;;11.20;99.90;;;;;;5070614;28;20200;-69
2023/05/12 05:22:41;;;;;;;6.47;5.80;;;11.30;99.90;;;;;;5063630;28;20209;-70
2023/05/12 05:25:09;;;;;;;6.95;6.25;;;11.30;99.90;;;;;;5050536;28;20653;-70
2023/05/12 05:27:37;;;;;;;6.65;5.28;;;11.30;99.90;;;;;;5051005;28;20251;-69
2023/05/12 05:30:05;;;;;;;8.50;6.18;;;11.30;99.90;;;;;;5069584;28;20228;-69
2023/05/12 05:32:31;;;;;;;5.80;5.15;;;11.30;99.90;;;;;;5071036;28;20223;-69
2023/05/12 05:34:58;;;;;;;9.32;6.47;;;11.30;99.90;;;;;;5060519;28;20197;-69
2023/05/12 05:37:26;;;;;;;6.38;5.60;;;11.40;99.90;;;;;;5050813;28;20236;-70
2023/05/12 05:39:52;;;;;;;7.00;4.80;;;11.50;99.90;;;;;;5050443;28;20688;-69
2023/05/12 05:42:19;;;;;;;6.43;5.10;;;11.50;99.90;;;;;;5050524;28;20216;-68
2023/05/12 05:44:47;;;;;;;6.15;5.07;;;11.50;99.90;;;;;;5050112;28;20205;-67
2023/05/12 05:47:14;;;;;;;6.80;4.90;;;11.60;99.90;;;;;;5050174;28;20623;-67
2023/05/12 05:49:41;;;;;;;6.00;5.07;;;11.60;99.90;;;;;;5050559;28;20554;-67
2023/05/12 05:52:08;;;;;;;6.20;4.97;;;11.60;99.90;;;;;;5050227;28;20672;-68
2023/05/12 05:54:34;;;;;;;5.57;5.07;;;11.70;99.90;;;;;;5050436;28;20562;-68
2023/05/12 05:57:02;;;;;;;9.38;5.32;;;11.80;99.90;;;;;;5050095;28;20217;-69
2023/05/12 05:59:28;;;;;;;5.80;4.95;;;11.80;99.90;;;;;;5050408;28;20201;-66
2023/05/12 06:01:56;;;;;;;6.78;4.65;;;11.90;99.90;;;;;;5050175;28;20699;-67
2023/05/12 06:04:23;;;;;;;5.38;4.57;;;11.90;99.90;;;;;;5050383;28;20197;-68
2023/05/12 06:06:50;;;;;;;5.80;5.13;;;11.90;99.90;;;;;;5050124;28;20228;-71
2023/05/12 06:09:16;;;;;;;7.78;5.95;;;11.90;99.90;;;;;;5053986;28;20220;-69
2023/05/12 06:11:43;;;;;;;4.97;4.50;;;12.00;99.90;;;;;;5070310;28;20207;-66
2023/05/12 06:14:10;;;;;;;6.57;5.47;;;12.00;99.90;;;;;;5069667;28;20200;-67
2023/05/12 06:16:37;;;;;;;5.75;4.80;;;12.00;99.90;;;;;;5070156;28;20224;-67
2023/05/12 06:19:05;;;;;;;6.35;5.63;;;12.00;99.90;;;;;;5069373;28;20254;-67
2023/05/12 06:21:32;;;;;;;6.50;5.35;;;12.10;99.90;;;;;;5070251;28;20390;-67
2023/05/12 06:23:58;;;;;;;5.03;4.45;;;12.10;99.90;;;;;;5069922;28;20204;-67
2023/05/12 06:26:25;;;;;;;5.53;4.47;;;12.10;99.90;;;;;;5070038;28;20228;-67
2023/05/12 06:28:52;;;;;;;5.85;4.68;;;12.10;99.90;;;;;;5070261;28;20265;-67
2023/05/12 06:31:18;;;;;;;5.43;4.93;;;12.20;99.90;;;;;;5070009;28;20204;-66
2023/05/12 06:33:45;;;;;;;6.18;4.88;;;12.20;99.90;;;;;;5070198;28;20226;-67
2023/05/12 06:36:13;;;;;;;5.82;5.03;;;12.30;99.90;;;;;;5069859;28;20687;-72
2023/05/12 06:38:40;;;;;;;8.20;5.50;;;12.40;99.90;;;;;;5070371;28;20211;-72
2023/05/12 06:41:07;;;;;;;5.10;4.60;;;12.40;99.90;;;;;;5059022;28;20224;-70
2023/05/12 06:43:33;;;;;;;7.00;5.13;;;12.40;99.90;;;;;;5050045;28;20205;-72
2023/05/12 06:46:00;;;;;;;5.00;4.50;;;12.50;99.90;;;;;;5059738;28;20478;-71
2023/05/12 06:48:27;;;;;;;8.88;4.90;;;12.50;99.90;;;;;;5070093;28;20556;-71
2023/05/12 06:50:54;;;;;;;5.47;4.68;;;12.50;99.90;;;;;;5069808;28;20200;-71
2023/05/12 06:53:22;;;;;;;4.40;4.00;;;12.50;99.90;;;;;;5069957;28;20197;-70
2023/05/12 06:55:49;;;;;;;4.05;3.65;;;12.60;99.90;;;;;;5069862;28;20730;-69
2023/05/12 06:58:17;;;;;;;4.30;3.65;;;12.60;99.90;;;;;;5069722;28;20542;-68
2023/05/12 07:00:44;;;;;;;5.43;3.90;;;12.70;99.90;;;;;;5069634;28;20205;-71
2023/05/12 07:03:11;;;;;;;4.95;4.00;;;12.80;99.90;;;;;;5066996;28;20213;-72
2023/05/12 07:05:38;;;;;;;3.88;3.38;;;12.70;99.90;;;;;;5049778;28;20201;-71
2023/05/12 07:08:05;;;;;;;3.83;3.47;;;12.80;99.90;;;;;;5066400;28;20200;-69
2023/05/12 07:10:34;;;;;;;3.50;3.10;;;12.80;99.90;;;;;;5049897;28;20259;-69
2023/05/12 07:13:00;;;;;;;5.20;3.33;;;12.90;99.90;;;;;;5050933;28;20336;-70
2023/05/12 07:15:27;;;;;;;4.05;3.33;;;12.90;99.90;;;;;;5069962;28;20482;-70
2023/05/12 07:17:54;;;;;;;5.35;4.40;;;12.90;99.90;;;;;;5061301;28;20205;-69
2023/05/12 07:20:21;;;;;;;4.93;4.40;;;13.00;99.90;;;;;;5049560;28;20197;-69
2023/05/12 07:22:48;;;;;;;4.85;4.28;;;13.10;99.90;;;;;;5049733;28;20225;-67
2023/05/12 07:25:15;;;;;;;4.57;4.13;;;13.30;99.90;;;;;;5048992;28;20236;-69
2023/05/12 07:27:43;;;;;;;4.77;4.03;;;13.30;99.90;;;;;;5049758;28;20626;-69
2023/05/12 07:30:11;;;;;;;4.53;4.10;;;13.30;99.90;;;;;;5052376;28;20542;-69
2023/05/12 07:32:38;;;;;;;4.80;4.17;;;13.40;99.90;;;;;;5053662;28;20245;-69
2023/05/12 07:35:05;;;;;;;6.90;5.17;;;13.40;99.90;;;;;;5049354;28;20829;-67
2023/05/12 07:37:32;;;;;;;4.83;4.00;;;13.40;99.90;;;;;;5057074;28;20493;-67
2023/05/12 07:39:59;;;;;;;5.03;3.60;;;13.50;99.90;;;;;;5063608;28;20500;-68
2023/05/12 07:42:25;;;;;;;4.73;4.23;;;13.50;99.90;;;;;;5060398;28;20482;-69
2023/05/12 07:44:53;;;;;;;5.57;4.67;;;13.60;99.90;;;;;;5068758;28;20469;-69
2023/05/12 07:47:20;;;;;;;4.77;4.30;;;13.60;99.90;;;;;;5047286;28;20478;-69
2023/05/12 07:49:46;;;;;;;4.47;3.87;;;13.80;99.90;;;;;;5072132;28;20471;-68
2023/05/12 07:52:13;;;;;;;5.23;4.37;;;13.80;99.90;;;;;;5069587;28;20953;-69
2023/05/12 07:54:40;;;;;;;3.80;3.40;;;13.90;99.90;;;;;;5053543;28;20939;-68
2023/05/12 07:57:06;;;;;;;4.93;3.73;;;14.00;99.90;;;;;;5070073;28;21028;-67
2023/05/12 07:59:33;;;;;;;5.50;3.50;;;14.00;99.90;;;;;;5072517;28;20915;-66
2023/05/12 08:02:01;;;;;;;4.60;3.63;;;14.00;99.90;;;;;;5054718;28;20479;-68
2023/05/12 08:04:28;;;;;;;4.80;3.40;;;13.90;99.90;;;;;;5064519;28;20881;-67
2023/05/12 08:06:55;;;;;;;3.37;3.07;;;13.90;99.90;;;;;;5071921;28;20483;-67
2023/05/12 08:09:21;;;;;;;2.93;2.73;;;13.90;99.90;;;;;;5043619;28;20840;-67
2023/05/12 08:11:49;;;;;;;3.33;3.03;;;13.90;99.90;;;;;;5051905;28;20532;-67
2023/05/12 08:14:15;;;;;;;3.67;3.37;;;14.00;99.90;;;;;;5051066;28;20459;-67
2023/05/12 08:16:44;;;;;;;3.20;2.90;;;14.00;99.90;;;;;;5052099;28;20483;-67
2023/05/12 08:19:12;;;;;;;3.43;3.13;;;14.10;99.90;;;;;;5053124;28;20462;-67
2023/05/12 08:21:39;;;;;;;6.13;3.40;;;14.20;99.90;;;;;;5071806;28;20482;-67
2023/05/12 08:24:06;;;;;;;3.37;3.07;;;14.20;99.90;;;;;;5071042;28;20462;-70
2023/05/12 08:26:32;;;;;;;4.40;3.50;;;14.50;99.90;;;;;;5071286;28;20510;-69
2023/05/12 08:28:59;;;;;;;3.60;3.30;;;14.70;99.90;;;;;;5071255;28;20508;-68
2023/05/12 08:31:26;;;;;;;3.30;3.00;;;15.00;99.90;;;;;;5071590;28;20524;-69
2023/05/12 08:33:52;;;;;;;3.20;2.90;;;15.30;99.90;;;;;;5071475;28;20549;-69
2023/05/12 08:36:20;;;;;;;3.43;3.13;;;15.70;99.90;;;;;;5071260;28;20485;-69
2023/05/12 08:38:47;;;;;;;4.30;2.90;;;15.60;99.90;;;;;;5071297;28;20811;-69
2023/05/12 08:41:20;;;;;;;3.03;2.80;;;15.20;99.90;;;;;;5070078;28;20467;-67
2023/05/12 08:43:51;;;;;;;3.77;3.40;;;15.20;99.90;;;;;;5064837;28;20553;-67
2023/05/12 08:46:18;;;;;;;3.47;3.17;;;15.20;99.90;;;;;;5063340;28;20868;-70
2023/05/12 08:48:46;;;;;;;3.77;3.37;;;15.20;99.90;;;;;;5071665;28;20477;-67
2023/05/12 08:51:14;;;;;;;3.50;3.20;;;15.00;99.90;;;;;;5071384;28;20498;-67
2023/05/12 08:53:42;;;;;;;3.00;2.70;;;14.90;99.90;;;;;;5065812;28;20916;-71
2023/05/12 08:56:11;;;;;;;2.93;2.60;;;14.70;99.90;;;;;;5059559;28;21002;-67
2023/05/12 08:58:38;;;;;;;5.07;2.90;;;14.70;99.90;;;;;;5051942;28;20466;-68
2023/05/12 09:01:06;;;;;;;2.77;2.57;;;14.50;99.90;;;;;;5051367;28;20455;-67
2023/05/12 09:03:34;;;;;;;3.20;2.87;;;14.50;99.90;;;;;;5055182;28;20851;-68
2023/05/12 09:06:02;;;;;;;3.60;3.07;;;14.40;99.90;;;;;;5063005;28;20482;-69
2023/05/12 09:08:31;;;;;;;3.10;2.80;;;14.40;99.90;;;;;;5071582;28;21272;-69
2023/05/12 09:11:00;;;;;;;3.47;2.90;;;14.40;99.90;;;;;;5071134;28;20458;-69
2023/05/12 09:13:33;;;;;;;3.10;2.80;;;14.50;99.90;;;;;;5056001;28;20459;-70
2023/05/12 09:16:03;;;;;;;3.20;2.90;;;14.50;99.90;;;;;;5054799;28;20513;-68
2023/05/12 09:18:43;;;;;;;3.57;3.27;;;14.50;99.90;;;;;;5070963;28;20474;-67
2023/05/12 09:21:10;;;;;;;5.80;4.27;;;14.60;99.90;;;;;;5070724;28;20458;-68
2023/05/12 09:23:37;;;;;;;3.67;2.80;;;14.70;99.90;;;;;;5066012;28;20485;-68
2023/05/12 09:26:05;;;;;;;3.70;3.40;;;14.80;99.90;;;;;;5050666;28;21221;-68
2023/05/12 09:28:37;;;;;;;2.93;2.63;;;15.10;99.90;;;;;;5050800;28;20546;-69
2023/05/12 09:31:15;;;;;;;3.10;2.80;;;15.30;99.90;;;;;;5050865;28;20491;-69
2023/05/12 09:33:42;;;;;;;2.53;2.33;;;15.60;99.90;;;;;;5050802;28;21209;-69
2023/05/12 09:36:09;;;;;;;2.43;2.23;;;15.90;99.90;;;;;;5050459;28;20511;-67
2023/05/12 09:38:35;;;;;;;3.40;2.50;;;16.00;99.90;;;;;;5055952;28;20463;-67
2023/05/12 09:41:02;;;;;;;4.60;3.03;;;16.30;99.90;;;;;;5069699;28;20963;-67
2023/05/12 09:43:30;;;;;;;2.70;2.40;;;16.40;99.90;;;;;;5070332;28;21085;-69
2023/05/12 09:45:57;;;;;;;2.50;2.30;;;16.50;99.90;;;;;;5062927;28;20479;-70
2023/05/12 09:48:24;;;;;;;2.60;2.40;;;16.80;99.90;;;;;;5050011;28;20464;-69
2023/05/12 09:50:52;;;;;;;2.87;2.53;;;16.90;99.90;;;;;;5065604;28;20844;-69
2023/05/12 09:53:21;;;;;;;2.40;2.20;;;17.00;99.90;;;;;;5068810;28;20581;-68
2023/05/12 09:55:49;;;;;;;2.57;2.37;;;17.00;99.90;;;;;;5070211;28;20875;-68
2023/05/12 09:58:17;;;;;;;2.90;2.63;;;16.90;99.90;;;;;;5070007;28;20509;-67
2023/05/12 10:00:46;;;;;;;3.37;2.43;;;16.80;99.90;;;;;;5070279;28;20458;-67
2023/05/12 10:03:14;;;;;;;2.50;2.30;;;16.60;99.90;;;;;;5069368;28;20489;-67
2023/05/12 10:05:47;;;;;;;2.17;1.97;;;16.40;99.90;;;;;;5064243;28;20863;-67
2023/05/12 10:08:19;;;;;;;2.07;1.90;;;16.40;99.90;;;;;;5050309;28;20466;-67
2023/05/12 10:10:49;;;;;;;2.20;2.00;;;16.40;99.90;;;;;;5050369;28;20463;-68
2023/05/12 10:13:16;;;;;;;2.70;2.10;;;16.50;99.90;;;;;;5049960;28;20881;-68
2023/05/12 10:15:46;;;;;;;2.43;1.80;;;16.60;99.90;;;;;;5050050;28;20464;-68
2023/05/12 10:18:13;;;;;;;1.83;1.70;;;16.80;99.90;;;;;;5049188;28;20463;-68
2023/05/12 10:20:40;;;;;;;1.70;1.50;;;16.80;99.90;;;;;;5049959;28;20464;-67
2023/05/12 10:23:08;;;;;;;1.70;1.60;;;16.80;99.90;;;;;;5050455;28;20475;-67
2023/05/12 10:25:35;;;;;;;2.43;2.23;;;16.70;99.90;;;;;;5069630;28;20459;-67
2023/05/12 10:28:02;;;;;;;2.43;2.13;;;16.60;99.90;;;;;;5070208;28;20462;-67
2023/05/12 10:30:29;;;;;;;2.57;2.27;;;16.60;99.90;;;;;;5041237;28;20463;-67
2023/05/12 10:32:58;;;;;;;2.33;2.13;;;16.60;99.90;;;;;;5049487;28;20966;-67
2023/05/12 10:35:32;;;;;;;2.67;2.47;;;16.60;99.90;;;;;;5049325;28;20463;-67
2023/05/12 10:38:01;;;;;;;2.60;2.40;;;16.50;99.90;;;;;;5050011;28;20483;-68
2023/05/12 10:40:28;;;;;;;2.97;2.77;;;16.40;99.90;;;;;;5049169;28;20598;-67
2023/05/12 10:42:58;;;;;;;2.30;2.10;;;16.40;99.90;;;;;;5049637;28;20483;-68
2023/05/12 10:45:25;;;;;;;3.10;2.80;;;16.40;99.90;;;;;;5050030;28;20575;-67
2023/05/12 10:47:52;;;;;;;2.60;2.33;;;16.20;99.90;;;;;;5049237;28;20514;-67
2023/05/12 10:50:28;;;;;;;4.20;2.67;;;16.20;99.90;;;;;;5049351;28;20463;-68
2023/05/12 10:52:55;;;;;;;2.53;2.20;;;16.20;99.90;;;;;;5049917;28;20470;-67
2023/05/12 10:55:31;;;;;;;2.50;2.30;;;16.10;99.90;;;;;;5048383;28;20466;-67
2023/05/12 10:58:05;;;;;;;2.83;2.30;;;16.00;99.90;;;;;;5057261;28;20516;-68
2023/05/12 11:00:42;;;;;;;2.50;2.07;;;16.00;99.90;;;;;;5069545;28;20837;-67
2023/05/12 11:03:13;;;;;;;2.57;2.37;;;16.00;99.90;;;;;;5069431;28;20474;-67
2023/05/12 11:05:41;;;;;;;1.80;1.57;;;16.20;99.90;;;;;;5073204;28;20462;-68
2023/05/12 11:08:08;;;;;;;2.83;2.53;;;16.20;99.90;;;;;;5072866;28;20553;-67
2023/05/12 11:10:35;;;;;;;2.17;1.90;;;16.20;99.90;;;;;;5053238;28;20463;-67
2023/05/12 11:13:02;;;;;;;2.50;2.30;;;16.20;99.90;;;;;;5081305;23;20483;-92
2023/05/12 11:15:30;;;;;;;2.40;2.20;;;16.20;99.90;;;;;;5064579;28;20455;-92
2023/05/12 11:17:57;;;;;;;2.53;2.33;;;16.20;99.90;;;;;;5065445;28;20466;-90
2023/05/12 11:20:24;;;;;;;2.43;2.20;;;16.00;99.90;;;;;;5060441;28;20506;-92
2023/05/12 11:22:53;;;;;;;2.90;2.23;;;15.80;99.90;;;;;;5069872;28;20573;-92
2023/05/12 11:25:20;;;;;;;2.80;2.50;;;15.70;99.90;;;;;;5078065;28;20463;-92
2023/05/12 11:27:48;;;;;;;3.50;2.90;;;15.50;99.90;;;;;;5070438;28;20526;-91
2023/05/12 11:30:15;;;;;;;3.57;3.03;;;15.30;99.90;;;;;;5072774;28;20489;-92
2023/05/12 11:32:42;;;;;;;3.33;3.00;;;15.20;99.90;;;;;;5076430;28;20587;-89
2023/05/12 11:35:10;;;;;;;2.87;2.63;;;15.20;99.90;;;;;;5072737;28;20473;-90
2023/05/12 11:37:38;;;;;;;3.27;2.97;;;15.10;99.90;;;;;;5066058;28;20821;-89
2023/05/12 11:40:17;;;;;;;4.60;3.20;;;15.00;99.90;;;;;;5064878;28;20486;-90
2023/05/12 11:42:47;;;;;;;3.50;2.90;;;15.00;99.90;;;;;;5058026;28;20490;-90
2023/05/12 11:45:25;;;;;;;3.80;3.40;;;15.00;99.90;;;;;;5072919;28;20462;-90
2023/05/12 11:47:53;;;;;;;3.27;2.97;;;14.80;99.90;;;;;;5070430;28;20458;-89
2023/05/12 11:50:22;;;;;;;3.23;2.90;;;14.50;99.90;;;;;;5067827;28;20547;-90
2023/05/12 11:52:49;;;;;;;3.20;2.90;;;14.30;99.90;;;;;;5068671;28;20482;-90
2023/05/12 11:55:23;;;;;;;4.20;3.43;;;14.20;99.90;;;;;;5067220;28;20455;-89
2023/05/12 11:57:58;;;;;;;2.70;2.50;;;14.20;99.90;;;;;;5058347;28;20512;-90
2023/05/12 12:00:29;;;;;;;3.30;2.80;;;14.20;99.90;;;;;;5058637;28;20529;-90
2023/05/12 12:03:13;;;;;;;3.50;2.70;;;14.30;99.90;;;;;;5056549;28;20541;-89
2023/05/12 12:05:41;;;;;;;2.30;2.00;;;14.50;99.90;;;;;;5057359;28;20467;-91
2023/05/12 12:08:11;;;;;;;1.70;1.50;;;14.40;99.90;;;;;;5056256;28;20460;-90
2023/05/12 12:10:40;;;;;;;1.80;1.70;;;14.40;99.90;;;;;;5055649;28;20466;-89
2023/05/12 12:13:06;;;;;;;1.67;1.40;;;14.50;99.90;;;;;;5056073;28;20858;-90
2023/05/12 12:15:33;;;;;;;2.17;1.33;;;14.60;99.90;;;;;;5054514;28;20468;-89
2023/05/12 12:18:00;;;;;;;1.60;1.50;;;14.60;99.90;;;;;;5057484;28;20463;-90
2023/05/12 12:20:27;;;;;;;1.70;1.60;;;14.70;99.90;;;;;;5057294;28;20482;-91
2023/05/12 12:22:53;;;;;;;1.43;1.33;;;14.80;99.90;;;;;;5061763;23;20658;-70
2023/05/12 12:25:21;;;;;;;1.80;1.30;;;14.80;99.90;;;;;;5053109;28;20838;-70
2023/05/12 12:27:49;;;;;;;1.50;1.27;;;14.90;99.90;;;;;;5030132;28;20473;-70
2023/05/12 12:30:16;;;;;;;1.40;1.20;;;15.00;99.90;;;;;;5049888;28;20953;-70
2023/05/12 12:32:44;;;;;;;1.50;1.40;;;15.00;99.90;;;;;;5052648;28;20463;-71
2023/05/12 12:35:12;;;;;;;1.23;1.03;;;15.20;99.90;;;;;;5054989;28;20452;-72
2023/05/12 12:37:39;;;;;;;1.73;1.63;;;15.10;99.90;;;;;;5040697;28;20480;-72
2023/05/12 12:40:08;;;;;;;2.17;1.97;;;15.30;99.90;;;;;;5034165;28;20533;-71
2023/05/12 12:42:36;;;;;;;1.77;1.53;;;15.50;99.90;;;;;;5037417;28;20455;-69
2023/05/12 12:45:05;;;;;;;1.60;1.50;;;15.70;99.90;;;;;;5045684;28;20459;-69
2023/05/12 12:47:32;;;;;;;1.77;1.67;;;16.10;99.90;;;;;;5053283;28;20483;-69
2023/05/12 12:49:58;;;;;;;2.00;1.80;;;16.30;99.90;;;;;;5053116;28;20463;-70
2023/05/12 12:52:25;;;;;;;1.90;1.70;;;16.50;99.90;;;;;;5054505;28;20459;-70